Time;durP1;ratioP1;P1;durP2;ratioP2;P2;SDS_P1;SDS_P2;PMS_P1;PMS_P2;Temp;Humidity;BMP_temperature;BMP_pressure;BME280_temperature;BME280_humidity;BME280_pressure;Samples;Min_cycle;Max_cycle;Signal;HPM_P1;HPM_P2
2023/02/08 00:00:15;;;;;;;12.20;9.68;;;;;;;0.70;65.51;100042.38;4174348;28;20206;-88
2023/02/08 00:02:18;;;;;;;15.38;9.70;;;;;;;0.65;65.38;100038.97;4146783;28;20350;-87
2023/02/08 00:04:22;;;;;;;14.48;10.60;;;;;;;0.66;65.78;100033.81;4176074;28;20273;-87
2023/02/08 00:06:25;;;;;;;13.82;9.50;;;;;;;0.65;65.53;100032.09;4156759;28;20230;-87
2023/02/08 00:08:28;;;;;;;15.10;10.10;;;;;;;0.62;65.07;100034.66;4158521;28;20213;-87
2023/02/08 00:10:32;;;;;;;14.95;9.25;;;;;;;0.51;65.87;100022.66;4157333;28;20199;-87
2023/02/08 00:12:35;;;;;;;13.55;9.50;;;;;;;0.48;65.86;100026.09;4168974;28;20202;-87
2023/02/08 00:14:38;;;;;;;12.75;9.90;;;;;;;0.46;66.08;100020.94;4177013;28;20237;-87
2023/02/08 00:16:41;;;;;;;13.85;8.95;;;;;;;0.37;66.06;100015.78;4150984;28;20206;-87
2023/02/08 00:18:44;;;;;;;15.80;9.98;;;;;;;0.34;66.33;100015.78;4159583;28;20252;-87
2023/02/08 00:20:48;;;;;;;15.90;10.48;;;;;;;0.30;66.02;100006.34;4159490;28;20308;-87
2023/02/08 00:22:51;;;;;;;16.15;10.32;;;;;;;0.27;65.97;100001.22;4155012;28;20203;-87
2023/02/08 00:24:55;;;;;;;14.60;9.93;;;;;;;0.26;66.57;99999.53;4175807;28;20301;-87
2023/02/08 00:26:58;;;;;;;15.93;9.85;;;;;;;0.26;66.40;100008.06;4145978;28;20242;-87
2023/02/08 00:29:01;;;;;;;14.95;10.00;;;;;;;0.21;66.42;100002.09;4142034;28;20199;-88
2023/02/08 00:31:05;;;;;;;14.30;9.10;;;;;;;0.20;66.72;100010.63;4157253;28;21494;-88
2023/02/08 00:33:09;;;;;;;18.85;11.82;;;;;;;0.17;66.96;99992.66;4174662;28;20198;-87
2023/02/08 00:35:12;;;;;;;15.00;10.27;;;;;;;0.23;67.06;99999.53;4155567;28;20565;-89
2023/02/08 00:37:17;;;;;;;18.02;10.25;;;;;;;0.24;67.06;100002.09;4172908;28;20297;-89
2023/02/08 00:39:20;;;;;;;15.77;12.15;;;;;;;0.19;67.51;99990.09;4173944;28;20210;-87
2023/02/08 00:41:24;;;;;;;18.70;11.45;;;;;;;0.07;67.11;99988.34;4155022;28;20210;-88
2023/02/08 00:43:27;;;;;;;17.02;11.93;;;;;;;0.07;67.26;99983.22;4175764;28;20217;-88
2023/02/08 00:45:30;;;;;;;16.63;10.80;;;;;;;0.03;67.61;99990.88;4152191;28;20214;-88
2023/02/08 00:47:33;;;;;;;20.90;12.60;;;;;;;-0.01;67.77;99986.63;4159155;28;20226;-87
2023/02/08 00:49:36;;;;;;;16.38;13.65;;;;;;;0.04;67.44;99992.59;4155522;28;20211;-87
2023/02/08 00:51:39;;;;;;;16.85;11.80;;;;;;;0.08;67.72;100005.44;4159517;28;20230;-87
2023/02/08 00:53:45;;;;;;;16.83;10.93;;;;;;;0.13;67.68;99995.22;4159183;28;20215;-88
2023/02/08 00:55:51;;;;;;;14.43;11.05;;;;;;;0.18;67.50;99998.63;4157037;28;20203;-88
2023/02/08 00:57:54;;;;;;;15.85;11.68;;;;;;;0.15;68.11;99999.50;4154769;28;20261;-88
2023/02/08 00:59:57;;;;;;;16.70;11.05;;;;;;;0.15;67.85;100004.63;4153017;28;20278;-87
2023/02/08 01:02:00;;;;;;;15.90;10.38;;;;;;;0.18;67.88;99996.94;4173208;28;22291;-88
2023/02/08 01:04:03;;;;;;;17.52;11.90;;;;;;;0.22;67.94;100003.78;4154979;28;20659;-88
2023/02/08 01:06:08;;;;;;;16.95;10.90;;;;;;;0.25;67.44;100005.50;4142127;28;20215;-88
2023/02/08 01:08:11;;;;;;;15.32;10.68;;;;;;;0.27;67.39;100004.66;4157898;28;20246;-88
2023/02/08 01:10:15;;;;;;;16.80;10.27;;;;;;;0.31;67.47;100006.38;4154200;28;20199;-87
2023/02/08 01:12:18;;;;;;;16.20;11.05;;;;;;;0.31;67.85;100010.66;4143918;28;20332;-88
2023/02/08 01:14:21;;;;;;;17.80;11.23;;;;;;;0.30;67.04;99999.53;4141307;28;20235;-88
2023/02/08 01:16:27;;;;;;;18.65;12.25;;;;;;;0.33;67.42;100011.50;4156550;28;20214;-88
2023/02/08 01:18:30;;;;;;;19.20;11.98;;;;;;;0.38;67.04;100007.25;4156826;28;20336;-88
2023/02/08 01:20:34;;;;;;;20.10;11.60;;;;;;;0.39;66.73;100006.38;4156324;28;20248;-88
2023/02/08 01:22:38;;;;;;;17.83;11.65;;;;;;;0.38;66.58;100008.09;4167713;28;20301;-87
2023/02/08 01:24:41;;;;;;;16.50;10.88;;;;;;;0.35;66.65;100008.09;4142652;28;20665;-88
2023/02/08 01:26:45;;;;;;;20.00;12.18;;;;;;;0.31;66.95;100005.53;4158024;28;20207;-87
2023/02/08 01:28:49;;;;;;;19.98;12.57;;;;;;;0.24;67.07;100001.22;4149327;28;20207;-88
2023/02/08 01:30:52;;;;;;;17.52;10.95;;;;;;;0.23;67.69;99997.81;4140277;28;20738;-88
2023/02/08 01:32:55;;;;;;;17.33;11.02;;;;;;;0.19;67.67;99992.66;4173732;28;20214;-87
2023/02/08 01:34:58;;;;;;;18.58;11.85;;;;;;;0.19;67.24;99990.09;4158964;28;20205;-87
2023/02/08 01:37:01;;;;;;;18.73;12.00;;;;;;;0.16;67.59;99997.78;4172138;28;20218;-87
2023/02/08 01:39:06;;;;;;;20.00;12.45;;;;;;;0.18;67.95;99988.38;4140105;28;20203;-87
2023/02/08 01:41:14;;;;;;;26.27;14.45;;;;;;;0.17;67.26;99989.25;4154612;28;20257;-88
2023/02/08 01:43:23;;;;;;;18.90;11.43;;;;;;;0.14;67.56;99984.09;4142410;28;20294;-87
2023/02/08 01:45:28;;;;;;;19.27;12.75;;;;;;;0.12;67.94;99981.53;4138337;28;20307;-88
2023/02/08 01:47:31;;;;;;;17.48;11.25;;;;;;;0.01;68.25;99985.75;4159154;28;20253;-88
2023/02/08 01:49:36;;;;;;;17.55;11.15;;;;;;;-0.04;68.60;99978.91;4154227;28;20298;-88
2023/02/08 01:51:41;;;;;;;18.73;11.60;;;;;;;-0.06;68.41;99983.19;4156014;28;20299;-87
2023/02/08 01:53:44;;;;;;;20.50;12.77;;;;;;;-0.02;68.60;99984.91;4152034;28;20762;-88
2023/02/08 01:55:52;;;;;;;16.45;10.90;;;;;;;-0.08;68.90;99977.19;4139161;28;20221;-87
2023/02/08 01:57:57;;;;;;;18.25;11.13;;;;;;;-0.11;68.76;99979.75;4139807;28;20209;-88
2023/02/08 02:00:03;;;;;;;20.33;11.95;;;;;;;-0.15;68.82;99975.47;4136407;28;20200;-87
2023/02/08 02:02:17;;;;;;;20.23;12.80;;;;;;;-0.15;68.75;99970.34;4155462;28;20210;-87
2023/02/08 02:04:22;;;;;;;18.40;11.73;;;;;;;-0.21;69.02;99964.31;4141729;28;20250;-87
2023/02/08 02:06:30;;;;;;;15.85;11.20;;;;;;;-0.26;69.22;99959.16;4139895;28;20239;-87
2023/02/08 02:08:33;;;;;;;20.77;12.27;;;;;;;-0.24;69.55;99957.50;4156126;28;20218;-88
2023/02/08 02:10:38;;;;;;;16.00;11.13;;;;;;;-0.26;69.11;99956.63;4141402;28;20211;-89
2023/02/08 02:12:42;;;;;;;18.13;10.90;;;;;;;-0.25;69.41;99950.66;4153599;28;20295;-88
2023/02/08 02:14:46;;;;;;;16.33;11.45;;;;;;;-0.26;69.54;99950.63;4145530;28;20223;-90
2023/02/08 02:16:50;;;;;;;16.40;10.70;;;;;;;-0.27;69.33;99947.22;4155148;28;20211;-89
2023/02/08 02:18:54;;;;;;;22.08;12.27;;;;;;;-0.28;69.06;99952.34;4172649;28;20207;-89
2023/02/08 02:21:10;;;;;;;18.25;11.82;;;;;;;-0.33;69.12;99946.34;4155134;28;20245;-89
2023/02/08 02:23:34;;;;;;;18.67;12.27;;;;;;;-0.36;69.76;99939.50;4153122;28;20298;-89
2023/02/08 02:26:01;;;;;;;17.10;11.43;;;;;;;-0.43;69.97;99944.59;4140260;28;20683;-89
2023/02/08 02:28:22;;;;;;;18.33;10.77;;;;;;;-0.46;69.50;99937.75;4169278;28;20230;-89
2023/02/08 02:30:36;;;;;;;17.50;11.65;;;;;;;-0.43;69.53;99935.19;4157190;28;20214;-89
2023/02/08 02:32:49;;;;;;;18.65;11.90;;;;;;;-0.39;69.59;99933.53;4160520;28;20230;-89
2023/02/08 02:34:57;;;;;;;16.45;10.65;;;;;;;-0.38;69.71;99936.06;4170822;28;20202;-89
2023/02/08 02:37:11;;;;;;;15.90;11.27;;;;;;;-0.35;69.57;99933.50;4142550;28;20205;-89
2023/02/08 02:39:20;;;;;;;17.48;11.70;;;;;;;-0.31;69.41;99934.41;4169236;28;20802;-89
2023/02/08 02:43:57;;;;;;;17.85;11.05;;;;;;;-0.35;69.54;99938.63;4174921;28;20209;-89
2023/02/08 02:46:05;;;;;;;17.88;10.57;;;;;;;-0.31;68.70;99942.09;4170774;28;20213;-89
2023/02/08 02:48:12;;;;;;;17.30;11.00;;;;;;;-0.28;69.24;99934.41;4133716;28;20731;-88
2023/02/08 02:50:20;;;;;;;16.38;10.13;;;;;;;-0.25;68.89;99934.44;4169571;28;20206;-89
2023/02/08 02:52:27;;;;;;;17.92;11.05;;;;;;;-0.22;68.83;99942.97;4175420;28;20297;-89
2023/02/08 02:54:33;;;;;;;15.93;10.75;;;;;;;-0.21;68.90;99937.00;4168691;28;20218;-89
2023/02/08 02:56:39;;;;;;;17.75;10.90;;;;;;;-0.21;68.74;99931.88;4155415;28;20860;-89
2023/02/08 02:58:43;;;;;;;16.00;10.98;;;;;;;-0.18;68.82;99933.56;4138582;28;20203;-89
2023/02/08 03:00:52;;;;;;;17.15;11.80;;;;;;;-0.14;68.30;99936.16;4141228;28;20235;-89
2023/02/08 03:02:57;;;;;;;16.42;10.43;;;;;;;-0.11;68.71;99943.00;4155293;28;20301;-89
2023/02/08 03:05:02;;;;;;;16.40;11.30;;;;;;;-0.07;68.53;99942.19;4143434;28;20616;-89
2023/02/08 03:07:11;;;;;;;16.15;11.23;;;;;;;-0.04;68.52;99948.16;4141039;28;20238;-89
2023/02/08 03:09:29;;;;;;;17.10;10.65;;;;;;;-0.02;68.29;99946.44;4153519;28;20251;-89
2023/02/08 03:11:34;;;;;;;18.75;11.32;;;;;;;-0.01;68.46;99944.75;4155163;28;20247;-89
2023/02/08 03:13:47;;;;;;;17.00;10.68;;;;;;;-0.03;67.87;99947.31;4153499;28;20231;-89
2023/02/08 03:15:59;;;;;;;20.20;10.82;;;;;;;-0.05;68.21;99943.88;4154420;28;20206;-89
2023/02/08 03:18:06;;;;;;;14.85;11.40;;;;;;;-0.04;68.16;99948.16;4168390;28;20659;-89
2023/02/08 03:20:13;;;;;;;19.25;11.63;;;;;;;-0.12;68.04;99951.53;4153390;28;20215;-89
2023/02/08 03:22:20;;;;;;;14.80;10.70;;;;;;;-0.12;68.21;99946.41;4170729;28;20275;-89
2023/02/08 03:24:28;;;;;;;20.33;12.02;;;;;;;-0.26;68.21;99943.81;4157000;28;20309;-89
2023/02/08 03:26:35;;;;;;;16.55;11.00;;;;;;;-0.32;68.78;99945.50;4172297;28;20296;-89
2023/02/08 03:28:41;;;;;;;16.08;11.40;;;;;;;-0.29;69.14;99948.06;4154550;28;20223;-89
2023/02/08 03:30:53;;;;;;;17.45;11.23;;;;;;;-0.31;69.24;99937.81;4154395;28;20203;-89
2023/02/08 03:32:58;;;;;;;17.55;11.93;;;;;;;-0.34;69.20;99932.69;4155658;28;20237;-89
2023/02/08 03:35:05;;;;;;;19.63;11.85;;;;;;;-0.37;69.61;99937.78;4139637;28;20295;-89
2023/02/08 03:37:11;;;;;;;19.52;11.95;;;;;;;-0.35;69.64;99941.19;4155462;28;20214;-89
2023/02/08 03:39:18;;;;;;;18.08;11.75;;;;;;;-0.33;69.45;99939.53;4167752;28;20725;-89
2023/02/08 03:41:24;;;;;;;27.67;13.27;;;;;;;-0.32;69.79;99938.66;4140847;28;20596;-89
2023/02/08 03:43:30;;;;;;;20.08;12.25;;;;;;;-0.37;69.32;99932.66;4138357;28;20247;-89
2023/02/08 03:45:36;;;;;;;20.45;12.20;;;;;;;-0.40;69.81;99934.38;4134561;28;20262;-90
2023/02/08 03:47:40;;;;;;;16.55;10.95;;;;;;;-0.40;69.84;99936.94;4166533;28;20289;-89
2023/02/08 03:49:45;;;;;;;18.80;11.93;;;;;;;-0.39;69.58;99934.38;4139202;28;21293;-89
2023/02/08 03:51:49;;;;;;;18.63;11.93;;;;;;;-0.43;69.61;99934.34;4159268;28;20241;-89
2023/02/08 03:53:55;;;;;;;18.65;11.60;;;;;;;-0.42;69.58;99941.19;4152487;28;20206;-89
2023/02/08 03:56:00;;;;;;;18.75;11.73;;;;;;;-0.38;69.32;99941.19;4169421;28;20198;-89
2023/02/08 03:58:06;;;;;;;19.23;11.90;;;;;;;-0.38;69.47;99936.06;4167672;28;20211;-89
2023/02/08 04:00:13;;;;;;;17.95;11.27;;;;;;;-0.35;69.27;99950.59;4156488;28;20210;-89
2023/02/08 04:02:20;;;;;;;17.33;10.98;;;;;;;-0.36;69.19;99948.88;4155058;28;20290;-89
2023/02/08 04:04:23;;;;;;;20.02;11.98;;;;;;;-0.34;69.29;99944.63;4138917;28;20218;-89
2023/02/08 04:06:26;;;;;;;18.00;11.25;;;;;;;-0.35;69.40;99937.78;4150695;28;20770;-89
2023/02/08 04:08:30;;;;;;;16.63;11.50;;;;;;;-0.38;69.12;99941.19;4150128;28;20686;-89
2023/02/08 04:10:34;;;;;;;18.33;11.48;;;;;;;-0.37;69.31;99940.34;4141526;28;20306;-89
2023/02/08 04:12:37;;;;;;;19.35;11.30;;;;;;;-0.36;69.26;99941.19;4157328;28;20206;-89
2023/02/08 04:14:40;;;;;;;18.65;11.40;;;;;;;-0.39;68.56;99934.38;4155623;28;20313;-90
2023/02/08 04:16:43;;;;;;;18.88;11.43;;;;;;;-0.43;69.59;99940.31;4167859;28;20576;-90
2023/02/08 04:18:46;;;;;;;16.20;11.65;;;;;;;-0.43;69.08;99935.19;4154634;28;20235;-90
2023/02/08 04:20:49;;;;;;;15.40;11.27;;;;;;;-0.43;68.88;99931.78;4134000;28;20269;-90
2023/02/08 04:22:52;;;;;;;19.85;11.68;;;;;;;-0.41;69.15;99943.75;4157314;28;20211;-90
2023/02/08 04:24:55;;;;;;;18.42;11.80;;;;;;;-0.43;69.37;99931.78;4155254;28;20625;-90
2023/02/08 04:27:00;;;;;;;17.60;12.68;;;;;;;-0.42;69.34;99934.34;4139355;28;20721;-90
2023/02/08 04:29:03;;;;;;;17.23;11.73;;;;;;;-0.40;69.08;99934.38;4171743;28;20250;-90
2023/02/08 04:31:06;;;;;;;20.58;12.00;;;;;;;-0.39;69.33;99929.25;4171504;28;21271;-90
2023/02/08 04:33:11;;;;;;;22.67;12.40;;;;;;;-0.38;69.16;99930.09;4143666;28;20208;-91
2023/02/08 04:35:14;;;;;;;18.98;11.80;;;;;;;-0.39;68.97;99924.13;4157526;28;20211;-90
2023/02/08 04:37:17;;;;;;;19.60;13.00;;;;;;;-0.41;69.23;99923.28;4172704;28;20207;-91
2023/02/08 04:39:20;;;;;;;18.70;11.43;;;;;;;-0.41;69.03;99928.41;4154351;28;20678;-91
2023/02/08 04:41:23;;;;;;;16.83;11.63;;;;;;;-0.40;68.61;99932.66;4158502;28;20753;-91
2023/02/08 04:43:28;;;;;;;18.60;12.40;;;;;;;-0.40;68.63;99937.78;4174194;28;20690;-91
2023/02/08 04:45:31;;;;;;;18.27;12.15;;;;;;;-0.45;68.63;99934.34;4170799;28;20312;-91
2023/02/08 04:47:34;;;;;;;24.38;13.35;;;;;;;-0.49;68.63;99928.34;4156212;28;20583;-90
2023/02/08 04:49:37;;;;;;;19.70;12.95;;;;;;;-0.52;68.51;99924.06;4171433;28;20233;-90
2023/02/08 04:51:40;;;;;;;18.75;11.90;;;;;;;-0.57;68.70;99928.31;4153004;28;20203;-90
2023/02/08 04:53:43;;;;;;;19.10;12.57;;;;;;;-0.62;68.67;99924.00;4170291;28;20292;-90
2023/02/08 04:55:46;;;;;;;18.38;12.00;;;;;;;-0.68;68.62;99919.72;4139158;28;20580;-90
2023/02/08 04:57:49;;;;;;;20.83;13.02;;;;;;;-0.67;68.58;99925.72;4157211;28;20226;-90
2023/02/08 04:59:54;;;;;;;17.27;11.45;;;;;;;-0.65;68.38;99919.72;4142803;28;20207;-91
2023/02/08 05:01:57;;;;;;;18.55;12.15;;;;;;;-0.65;68.57;99918.88;4160073;28;21986;-90
2023/02/08 05:04:00;;;;;;;19.10;12.30;;;;;;;-0.66;68.59;99909.47;4177852;28;20565;-91
2023/02/08 05:06:03;;;;;;;18.25;12.80;;;;;;;-0.67;68.62;99911.19;4156226;28;20608;-91
2023/02/08 05:08:06;;;;;;;20.88;12.60;;;;;;;-0.71;68.68;99909.44;4145192;28;21176;-90
2023/02/08 05:10:10;;;;;;;20.05;12.00;;;;;;;-0.73;68.61;99908.59;4156411;28;20310;-91
2023/02/08 05:12:13;;;;;;;17.98;12.30;;;;;;;-0.74;68.52;99906.03;4154061;28;20207;-91
2023/02/08 05:14:16;;;;;;;18.23;12.32;;;;;;;-0.75;68.87;99906.88;4160270;28;20250;-90
2023/02/08 05:16:20;;;;;;;21.15;13.02;;;;;;;-0.73;68.65;99912.88;4158063;28;20207;-90
2023/02/08 05:18:23;;;;;;;20.13;12.73;;;;;;;-0.75;68.73;99912.88;4175050;28;20202;-89
2023/02/08 05:20:27;;;;;;;19.42;12.60;;;;;;;-0.78;68.84;99912.00;4147802;28;20200;-90
2023/02/08 05:22:30;;;;;;;25.05;13.38;;;;;;;-0.78;68.80;99912.00;4159561;28;20614;-90
2023/02/08 05:24:33;;;;;;;20.15;12.68;;;;;;;-0.81;68.70;99907.72;4174346;28;20199;-89
2023/02/08 05:26:36;;;;;;;23.70;13.48;;;;;;;-0.78;68.42;99912.84;4138578;28;20720;-90
2023/02/08 05:28:39;;;;;;;22.42;12.35;;;;;;;-0.76;68.20;99915.41;4176400;28;20263;-89
2023/02/08 05:30:42;;;;;;;19.45;13.60;;;;;;;-0.78;68.54;99909.44;4159118;28;20714;-90
2023/02/08 05:32:46;;;;;;;21.45;13.93;;;;;;;-0.82;68.69;99910.25;4160482;28;20213;-90
2023/02/08 05:34:49;;;;;;;19.48;12.60;;;;;;;-0.84;68.28;99911.97;4160034;28;20206;-91
2023/02/08 05:36:52;;;;;;;20.65;12.80;;;;;;;-0.84;68.63;99911.97;4156463;28;20635;-87
2023/02/08 05:38:56;;;;;;;19.80;12.10;;;;;;;-0.82;68.95;99915.38;4169567;28;20206;-89
2023/02/08 05:40:59;;;;;;;24.65;14.27;;;;;;;-0.87;68.57;99907.69;4174828;28;20583;-88
2023/02/08 05:43:02;;;;;;;19.45;12.63;;;;;;;-0.86;68.83;99921.31;4172498;28;20628;-89
2023/02/08 05:45:06;;;;;;;20.40;13.13;;;;;;;-0.86;68.90;99923.88;4154712;28;20211;-88
2023/02/08 05:47:09;;;;;;;23.63;13.82;;;;;;;-0.84;68.84;99911.97;4174013;28;20479;-90
2023/02/08 05:49:13;;;;;;;23.17;13.20;;;;;;;-0.81;69.06;99912.00;4152122;28;20599;-91
2023/02/08 05:51:16;;;;;;;23.60;14.07;;;;;;;-0.84;68.86;99911.97;4156766;28;20317;-90
2023/02/08 05:53:19;;;;;;;19.67;12.82;;;;;;;-0.81;69.10;99919.66;4141970;28;20207;-90
2023/02/08 05:55:22;;;;;;;21.52;13.50;;;;;;;-0.82;68.63;99916.22;4143981;28;20634;-90
2023/02/08 05:57:25;;;;;;;22.70;13.10;;;;;;;-0.80;68.81;99912.00;4175697;28;20763;-90
2023/02/08 05:59:29;;;;;;;23.20;13.07;;;;;;;-0.80;68.45;99914.56;4154795;28;20204;-90
2023/02/08 06:01:32;;;;;;;21.23;12.15;;;;;;;-0.84;68.92;99911.97;4159881;28;20239;-90
2023/02/08 06:03:35;;;;;;;20.33;13.57;;;;;;;-0.83;69.05;99918.78;4155594;28;20222;-90
2023/02/08 06:05:40;;;;;;;21.45;13.60;;;;;;;-0.82;68.84;99921.34;4156570;28;20199;-90
2023/02/08 06:07:43;;;;;;;19.75;13.25;;;;;;;-0.83;69.14;99923.91;4157913;28;20238;-90
2023/02/08 06:09:46;;;;;;;24.55;14.48;;;;;;;-0.83;68.64;99919.66;4170206;28;20206;-90
2023/02/08 06:11:50;;;;;;;22.45;14.35;;;;;;;-0.83;68.87;99919.66;4155210;28;20225;-90
2023/02/08 06:13:53;;;;;;;22.92;14.07;;;;;;;-0.79;68.61;99929.03;4175399;28;20772;-90
2023/02/08 06:15:56;;;;;;;23.20;13.30;;;;;;;-0.80;68.46;99919.69;4171674;28;20202;-90
2023/02/08 06:17:59;;;;;;;21.25;12.20;;;;;;;-0.85;68.73;99916.22;4173921;28;20202;-91
2023/02/08 06:20:02;;;;;;;23.33;13.55;;;;;;;-0.86;68.59;99926.44;4140817;28;20302;-90
2023/02/08 06:22:07;;;;;;;22.25;13.75;;;;;;;-0.89;68.55;99918.75;4173280;28;20684;-90
2023/02/08 06:24:10;;;;;;;21.65;14.20;;;;;;;-0.88;68.55;99918.75;4152824;28;20207;-90
2023/02/08 06:26:13;;;;;;;21.35;13.40;;;;;;;-0.92;68.33;99922.16;4151923;28;20203;-91
2023/02/08 06:28:16;;;;;;;21.33;13.00;;;;;;;-0.93;68.45;99925.56;4154543;28;20199;-90
2023/02/08 06:30:20;;;;;;;21.02;13.90;;;;;;;-0.94;68.32;99929.81;4171555;28;20288;-90
2023/02/08 06:32:23;;;;;;;20.15;12.93;;;;;;;-0.96;68.30;99929.81;4136702;28;20219;-90
2023/02/08 06:34:26;;;;;;;24.50;14.23;;;;;;;-0.99;68.51;99927.22;4155785;28;20343;-90
2023/02/08 06:36:29;;;;;;;23.20;14.00;;;;;;;-1.06;68.21;99925.47;4139904;28;20303;-90
2023/02/08 06:38:33;;;;;;;19.60;12.70;;;;;;;-1.06;68.42;99924.63;4171665;28;20849;-90
2023/02/08 06:40:36;;;;;;;21.23;12.80;;;;;;;-1.12;68.59;99920.31;4156805;28;20237;-90
2023/02/08 06:42:41;;;;;;;21.10;14.10;;;;;;;-1.15;68.52;99925.41;4139679;28;20211;-91
2023/02/08 06:44:45;;;;;;;19.00;13.02;;;;;;;-1.14;68.45;99918.56;4175248;28;20313;-90
2023/02/08 06:46:57;;;;;;;24.33;13.35;;;;;;;-1.13;68.74;99931.38;4153021;28;20792;-90
2023/02/08 06:49:00;;;;;;;26.48;13.95;;;;;;;-1.18;68.33;99939.91;4155561;28;20199;-90
2023/02/08 06:51:03;;;;;;;24.05;15.32;;;;;;;-1.22;68.55;99923.69;4156514;28;20234;-90
2023/02/08 06:53:06;;;;;;;22.73;14.55;;;;;;;-1.22;68.79;99926.22;4155512;28;20268;-89
2023/02/08 06:55:11;;;;;;;22.00;12.95;;;;;;;-1.24;68.37;99930.47;4169655;28;20206;-90
2023/02/08 06:57:14;;;;;;;23.23;13.98;;;;;;;-1.21;68.65;99934.75;4137532;28;20199;-89
2023/02/08 06:59:17;;;;;;;22.05;13.48;;;;;;;-1.26;68.56;99932.16;4174205;28;20210;-90
2023/02/08 07:01:20;;;;;;;22.23;13.65;;;;;;;-1.19;68.27;99940.72;4171432;28;20214;-90
2023/02/08 07:03:23;;;;;;;27.00;14.00;;;;;;;-1.03;68.26;99945.97;4172018;28;20687;-90
2023/02/08 07:05:26;;;;;;;23.30;12.82;;;;;;;-0.98;68.30;99946.84;4168444;28;20206;-90
2023/02/08 07:07:30;;;;;;;23.67;13.30;;;;;;;-0.82;67.56;99944.38;4139454;28;20672;-90
2023/02/08 07:09:33;;;;;;;20.05;13.50;;;;;;;-0.65;67.42;99950.44;4138161;28;20219;-91
2023/02/08 07:11:37;;;;;;;23.58;14.55;;;;;;;-0.45;67.03;99959.97;4173660;28;20257;-91
2023/02/08 07:13:40;;;;;;;21.23;13.38;;;;;;;-0.31;67.03;99968.56;4144601;28;20582;-90
2023/02/08 07:15:43;;;;;;;21.40;13.25;;;;;;;-0.15;66.42;99959.22;4156012;28;20680;-89
2023/02/08 07:17:47;;;;;;;21.45;14.60;;;;;;;-0.01;65.90;99963.56;4142177;28;20253;-90
2023/02/08 07:19:50;;;;;;;24.13;13.90;;;;;;;0.10;65.78;99965.28;4144020;28;20294;-89
2023/02/08 07:21:54;;;;;;;23.67;15.45;;;;;;;0.27;65.75;99966.19;4142788;28;20242;-90
2023/02/08 07:23:57;;;;;;;24.50;13.85;;;;;;;0.42;65.18;99971.31;4175692;28;20206;-88
2023/02/08 07:26:01;;;;;;;21.23;14.15;;;;;;;0.59;64.68;99970.50;4142025;28;20207;-88
2023/02/08 07:28:06;;;;;;;23.85;13.68;;;;;;;0.68;64.05;99978.22;4140660;28;20211;-89
2023/02/08 07:30:10;;;;;;;22.20;13.50;;;;;;;0.82;63.84;99984.19;4159981;28;20213;-89
2023/02/08 07:32:13;;;;;;;22.48;14.50;;;;;;;0.91;63.73;99981.63;4160332;28;20667;-89
2023/02/08 07:34:20;;;;;;;18.92;12.98;;;;;;;1.03;63.32;99984.19;4151943;28;20301;-89
2023/02/08 07:36:23;;;;;;;22.63;14.63;;;;;;;1.17;63.30;99983.31;4151522;28;20207;-87
2023/02/08 07:38:27;;;;;;;20.95;13.85;;;;;;;1.29;62.74;99982.44;4163174;28;20203;-87
2023/02/08 07:40:30;;;;;;;22.60;14.55;;;;;;;1.43;63.11;99982.41;4148525;28;20207;-87
2023/02/08 07:42:34;;;;;;;24.08;13.73;;;;;;;1.58;62.83;99982.38;4166650;28;20748;-88
2023/02/08 07:44:52;;;;;;;23.90;14.30;;;;;;;1.70;61.53;99981.47;4155442;28;20686;-88
2023/02/08 07:46:55;;;;;;;24.38;14.60;;;;;;;1.69;61.23;99980.63;4137085;28;20242;-89
2023/02/08 07:48:58;;;;;;;23.88;14.63;;;;;;;1.77;61.69;99978.03;4156179;28;20290;-89
2023/02/08 07:51:02;;;;;;;21.55;15.07;;;;;;;1.81;60.53;99974.59;4153768;28;20266;-86
2023/02/08 07:53:05;;;;;;;21.98;13.95;;;;;;;1.78;60.32;99979.75;4151492;28;20297;-87
2023/02/08 07:55:08;;;;;;;24.70;14.68;;;;;;;1.85;60.87;99976.28;4154748;28;20269;-85
2023/02/08 07:57:11;;;;;;;23.13;14.45;;;;;;;1.89;61.07;99974.56;4136670;28;20222;-85
2023/02/08 07:59:15;;;;;;;23.48;14.77;;;;;;;1.90;60.88;99976.25;4170709;28;20597;-85
2023/02/08 08:01:19;;;;;;;21.88;14.60;;;;;;;2.01;60.83;99984.78;4171305;28;20252;-85
2023/02/08 08:03:25;;;;;;;22.35;15.05;;;;;;;2.09;60.25;99969.31;4174222;28;20213;-85
2023/02/08 08:05:28;;;;;;;21.67;14.70;;;;;;;2.24;60.11;99972.69;4155532;28;20587;-85
2023/02/08 08:07:31;;;;;;;23.58;14.50;;;;;;;2.43;60.17;99976.84;4174740;28;20202;-85
2023/02/08 08:09:34;;;;;;;22.33;14.50;;;;;;;2.47;59.07;99978.53;4144251;28;20219;-85
2023/02/08 08:11:37;;;;;;;22.33;14.95;;;;;;;2.50;59.54;99974.22;4175641;28;20234;-85
2023/02/08 08:13:40;;;;;;;24.20;14.65;;;;;;;2.59;59.55;99986.19;4140372;28;20254;-85
2023/02/08 08:15:43;;;;;;;21.73;15.02;;;;;;;2.66;59.20;99978.41;4179446;28;20210;-85
2023/02/08 08:17:47;;;;;;;22.67;14.77;;;;;;;2.77;59.42;99984.34;4156678;28;20310;-85
2023/02/08 08:19:50;;;;;;;24.20;14.38;;;;;;;2.82;58.57;99982.56;4175451;28;20214;-85
2023/02/08 08:21:53;;;;;;;22.85;13.93;;;;;;;2.87;58.89;99971.38;4155527;28;20203;-85
2023/02/08 08:23:56;;;;;;;22.80;14.70;;;;;;;2.88;58.39;99970.47;4174594;28;20206;-85
2023/02/08 08:25:59;;;;;;;22.10;14.38;;;;;;;2.96;58.21;99975.56;4175073;28;20201;-85
2023/02/08 08:28:03;;;;;;;22.45;14.98;;;;;;;3.07;58.95;99976.38;4179223;28;20206;-85
2023/02/08 08:30:07;;;;;;;24.00;14.57;;;;;;;3.23;58.20;99990.81;4175898;28;20205;-85
2023/02/08 08:32:10;;;;;;;22.42;14.70;;;;;;;3.35;57.63;99989.84;4158864;28;20581;-86
2023/02/08 08:34:15;;;;;;;18.73;13.52;;;;;;;3.42;57.98;99982.88;4170131;28;20214;-85
2023/02/08 08:36:18;;;;;;;23.75;15.18;;;;;;;3.51;57.15;99986.22;4154691;28;20214;-86
2023/02/08 08:38:21;;;;;;;22.17;14.10;;;;;;;3.65;57.43;99997.25;4168641;28;20214;-86
2023/02/08 08:40:24;;;;;;;23.40;14.93;;;;;;;3.60;56.96;99990.44;4155920;28;20794;-86
2023/02/08 08:42:27;;;;;;;20.92;14.68;;;;;;;3.46;56.30;99985.41;4172054;28;20297;-86
2023/02/08 08:44:30;;;;;;;20.42;14.30;;;;;;;3.39;56.85;99980.34;4170116;28;20241;-86
2023/02/08 08:46:33;;;;;;;19.92;14.40;;;;;;;3.56;56.62;99992.16;4154469;28;20672;-86
2023/02/08 08:48:37;;;;;;;22.25;14.35;;;;;;;3.57;56.41;99986.16;4149873;28;20211;-86
2023/02/08 08:50:42;;;;;;;25.00;16.15;;;;;;;3.66;57.01;99985.22;4155053;28;20254;-86
2023/02/08 08:52:45;;;;;;;23.70;15.25;;;;;;;3.77;56.33;99990.25;4174538;28;20228;-86
2023/02/08 08:54:48;;;;;;;21.30;14.43;;;;;;;3.86;57.02;99986.69;4142679;28;20330;-86
2023/02/08 08:56:51;;;;;;;30.10;18.77;;;;;;;3.89;57.24;99984.94;4176625;28;20722;-86
2023/02/08 08:58:54;;;;;;;24.15;14.65;;;;;;;4.11;56.97;99991.53;4157996;28;20734;-86
2023/02/08 09:00:58;;;;;;;20.92;14.07;;;;;;;4.18;56.86;99992.31;4179380;28;20206;-86
2023/02/08 09:03:02;;;;;;;22.50;13.88;;;;;;;4.33;58.05;99993.84;4137799;28;20215;-86
2023/02/08 09:05:06;;;;;;;25.08;14.23;;;;;;;4.45;56.32;99988.50;4157889;28;20206;-86
2023/02/08 09:07:11;;;;;;;22.10;13.55;;;;;;;4.25;55.20;99987.03;4135042;28;20274;-87
2023/02/08 09:09:14;;;;;;;23.10;12.82;;;;;;;4.34;54.73;99974.00;4175319;28;20686;-86
2023/02/08 09:11:17;;;;;;;19.48;13.63;;;;;;;4.32;55.54;99975.78;4176253;28;20742;-86
2023/02/08 09:13:20;;;;;;;22.58;14.43;;;;;;;4.21;54.14;99975.06;4154571;28;20346;-86
2023/02/08 09:15:24;;;;;;;22.90;15.57;;;;;;;4.24;54.88;99973.28;4153660;28;20217;-86
2023/02/08 09:17:27;;;;;;;20.52;14.43;;;;;;;4.41;54.57;99980.81;4157612;28;20202;-86
2023/02/08 09:19:30;;;;;;;23.45;14.52;;;;;;;4.46;54.25;99974.69;4150274;28;20211;-87
2023/02/08 09:21:34;;;;;;;20.00;13.90;;;;;;;4.55;53.47;99971.97;4173382;28;20202;-87
2023/02/08 09:23:38;;;;;;;16.83;12.10;;;;;;;4.66;54.78;99972.69;4140889;28;20215;-87
2023/02/08 09:25:42;;;;;;;22.23;14.23;;;;;;;4.72;55.18;99978.63;4160368;28;20199;-87
2023/02/08 09:27:45;;;;;;;19.73;12.93;;;;;;;4.77;54.23;99981.13;4154325;28;20484;-87
2023/02/08 09:29:48;;;;;;;18.83;13.52;;;;;;;4.80;54.64;99976.75;4139319;28;20235;-87
2023/02/08 09:31:51;;;;;;;23.38;15.57;;;;;;;4.76;53.47;99979.41;4176240;28;20597;-87
2023/02/08 09:33:56;;;;;;;18.67;13.27;;;;;;;4.87;53.85;99977.50;4153629;28;20301;-87
2023/02/08 09:35:59;;;;;;;24.45;15.27;;;;;;;4.89;53.85;99983.53;4141985;28;20203;-87